CPX246 Details

Departure: Benito Juárez International Airport (MMMX)
Arrival: Los Angeles International Airport (KLAX)
Route: PPE J93 ASUTA AMMOR OLAAA1


Current Weather Information
MMMX 260943Z 06006KT 12SM SKC 09/M08 A3036 NOSIG
KLAX 260953Z 17004KT 10SM FEW012 FEW220 13/11 A3003 RMK AO2 SLP167 T01280111